METAR Croatia

METAR LDZA 271830Z 00000KT CAVOK 23/16 Q1020 NOSIG =
METAR LDSP 271830Z 31009KT CAVOK 28/15 Q1017 NOSIG=
METAR LDDU 271830Z 32004KT 290V010 CAVOK 24/15 Q1019 NOSIG =
METAR LDZD 271830Z 31003KT CAVOK 23/18 Q1018 NOSIG =
METAR LDPL 271830Z 00000KT CAVOK 21/17 Q1018 NOSIG=
METAR LDOS 271830Z 13005KT CAVOK 23/15 Q1020=
METAR LDSB 271800Z 31009KT CAVOK 24/11 Q1020=
METAR LDRI 271830Z 01004KT CAVOK 25/17 Q1018=
METAR LDLO 271800Z 32008KT CAVOK 24/17 Q1018=

TAF Croatia

TAF LDZA 271725Z 2718/2818 VRB02KT CAVOK
                 TX30/2813Z TN14/2803Z=
TAF LDSP 271725Z 2718/2818 30006KT CAVOK
                 TX31/2814Z TN21/2804Z
           BECMG 2809/2812 23012KT
           BECMG 2815/2817 30007KT=
TAF LDDU 271725Z 2718/2818 08006KT CAVOK
                 TX27/2810Z TN20/2804Z
           TEMPO 2809/2812 19010KT
           BECMG 2813/2815 28009KT
           BECMG 2816/2818 30005KT=
TAF LDZD 271725Z 2718/2818 VRB02KT CAVOK
                 TX30/2811Z TN16/2803Z
           TEMPO 2718/2720 32006KT
    PROB30 TEMPO 2801/2805 3000 BR MIFG
           BECMG 2810/2812 29012KT
           BECMG 2816/2818 30006KT=
TAF LDPL 271725Z 2718/2818 29005KT CAVOK
                 TX29/2812Z TN18/2803Z
           BECMG 2809/2811 27012KT=
TAF LDOS 271725Z 2718/2818 09005KT CAVOK
                 TX30/2813Z TN16/2803Z
          PROB30 2803/2806 3000 BR=
TAF LDSB 271125Z 2712/2812 30008KT CAVOK
                 TX28/2712Z TN22/2804Z
           TEMPO 2712/2714 23008KT=
TAF LDRI 271725Z 2718/2818 VRB02KT CAVOK
                 TX31/2813Z TN20/2803Z=
TAF LDLO 271125Z 2712/2812 32008KT CAVOK
                 TX29/2713Z TN21/2803Z
           BECMG 2717/2719 VRB02KT
           BECMG 2809/2811 32008KT=

SIGMET Croatia

AIRMET Croatia


Ukoliko se brzina i smjer vjetra ne mogu odrediti zbog privremenog kvara sustava/indikatora, 
informacija o vjetru u METAR izvjescu bit ce prikazana kao "/////KT".
When the wind speed and direction cannot be determined due to temporary failure of 
system/sensor they shall be replaced in METAR report by "/////KT".